sensor_id;sensor_type;location;lat;lon;timestamp;pressure;altitude;pressure_sealevel;temperature;humidity
40315;BME280;26021;45.640;11.302;2022-10-18T00:00:46;99981.69;;;13.58;100.00
40315;BME280;26021;45.640;11.302;2022-10-18T00:03:12;99987.22;;;13.57;100.00
40315;BME280;26021;45.640;11.302;2022-10-18T00:05:37;99994.25;;;13.82;100.00
40315;BME280;26021;45.640;11.302;2022-10-18T00:08:03;99992.09;;;13.61;100.00
40315;BME280;26021;45.640;11.302;2022-10-18T00:10:29;99961.84;;;13.43;100.00
40315;BME280;26021;45.640;11.302;2022-10-18T00:12:54;99979.50;;;13.62;100.00
40315;BME280;26021;45.640;11.302;2022-10-18T00:15:20;99981.00;;;13.56;100.00
40315;BME280;26021;45.640;11.302;2022-10-18T00:17:45;99959.13;;;13.35;100.00
40315;BME280;26021;45.640;11.302;2022-10-18T00:20:11;99978.97;;;13.66;100.00
40315;BME280;26021;45.640;11.302;2022-10-18T00:22:38;99982.00;;;13.63;100.00
40315;BME280;26021;45.640;11.302;2022-10-18T00:25:05;99972.28;;;13.38;100.00
40315;BME280;26021;45.640;11.302;2022-10-18T00:27:32;99961.53;;;13.46;100.00
40315;BME280;26021;45.640;11.302;2022-10-18T00:29:58;99965.72;;;13.57;100.00
40315;BME280;26021;45.640;11.302;2022-10-18T00:32:24;99923.19;;;13.20;100.00
40315;BME280;26021;45.640;11.302;2022-10-18T00:34:49;99966.34;;;13.34;100.00
40315;BME280;26021;45.640;11.302;2022-10-18T00:37:15;99940.19;;;13.45;100.00
40315;BME280;26021;45.640;11.302;2022-10-18T00:39:41;99957.66;;;13.49;100.00
40315;BME280;26021;45.640;11.302;2022-10-18T00:42:10;99958.66;;;13.48;100.00
40315;BME280;26021;45.640;11.302;2022-10-18T00:47:07;99955.81;;;13.41;100.00
40315;BME280;26021;45.640;11.302;2022-10-18T00:49:37;99954.97;;;13.49;100.00
40315;BME280;26021;45.640;11.302;2022-10-18T00:52:08;99957.16;;;13.45;100.00
40315;BME280;26021;45.640;11.302;2022-10-18T00:54:36;99958.31;;;13.34;100.00
40315;BME280;26021;45.640;11.302;2022-10-18T00:57:04;99961.19;;;13.49;100.00
40315;BME280;26021;45.640;11.302;2022-10-18T00:59:30;99935.63;;;13.37;100.00
40315;BME280;26021;45.640;11.302;2022-10-18T01:01:56;99956.13;;;13.54;100.00
40315;BME280;26021;45.640;11.302;2022-10-18T01:04:22;99913.28;;;13.20;100.00
40315;BME280;26021;45.640;11.302;2022-10-18T01:07:13;99949.91;;;13.38;100.00
40315;BME280;26021;45.640;11.302;2022-10-18T01:15:57;99923.69;;;13.15;100.00
40315;BME280;26021;45.640;11.302;2022-10-18T01:21:03;99940.00;;;13.30;100.00
40315;BME280;26021;45.640;11.302;2022-10-18T01:27:20;99902.88;;;13.33;100.00
40315;BME280;26021;45.640;11.302;2022-10-18T01:32:40;99916.16;;;13.59;100.00
40315;BME280;26021;45.640;11.302;2022-10-18T01:35:11;99908.44;;;13.40;100.00
40315;BME280;26021;45.640;11.302;2022-10-18T01:37:40;99918.03;;;13.43;100.00
40315;BME280;26021;45.640;11.302;2022-10-18T01:40:08;99915.84;;;13.38;100.00
40315;BME280;26021;45.640;11.302;2022-10-18T01:42:35;99918.66;;;13.28;100.00
40315;BME280;26021;45.640;11.302;2022-10-18T01:45:02;99918.53;;;13.46;100.00
40315;BME280;26021;45.640;11.302;2022-10-18T01:47:29;99925.22;;;13.34;100.00
40315;BME280;26021;45.640;11.302;2022-10-18T01:49:57;99923.03;;;13.21;100.00
40315;BME280;26021;45.640;11.302;2022-10-18T01:52:24;99925.59;;;13.39;100.00
40315;BME280;26021;45.640;11.302;2022-10-18T01:54:49;99916.50;;;13.40;100.00
40315;BME280;26021;45.640;11.302;2022-10-18T01:57:23;99917.81;;;13.36;100.00
40315;BME280;26021;45.640;11.302;2022-10-18T02:05:51;99905.41;;;13.35;100.00
40315;BME280;26021;45.640;11.302;2022-10-18T02:08:33;99907.78;;;13.38;100.00
40315;BME280;26021;45.640;11.302;2022-10-18T02:11:05;99908.94;;;13.27;100.00
40315;BME280;26021;45.640;11.302;2022-10-18T02:13:43;99905.41;;;13.19;100.00
40315;BME280;26021;45.640;11.302;2022-10-18T02:16:15;99905.88;;;13.14;100.00
40315;BME280;26021;45.640;11.302;2022-10-18T02:18:50;99903.22;;;13.30;100.00
40315;BME280;26021;45.640;11.302;2022-10-18T02:21:18;99895.00;;;13.32;100.00
40315;BME280;26021;45.640;11.302;2022-10-18T02:23:45;99895.66;;;13.34;100.00
40315;BME280;26021;45.640;11.302;2022-10-18T02:26:12;99896.19;;;13.46;100.00
40315;BME280;26021;45.640;11.302;2022-10-18T02:28:38;99892.97;;;13.34;100.00
40315;BME280;26021;45.640;11.302;2022-10-18T02:34:22;99894.97;;;13.16;100.00
40315;BME280;26021;45.640;11.302;2022-10-18T02:36:57;99886.25;;;13.05;100.00
40315;BME280;26021;45.640;11.302;2022-10-18T02:39:33;99875.19;;;13.17;100.00
40315;BME280;26021;45.640;11.302;2022-10-18T02:41:59;99891.59;;;13.05;100.00
40315;BME280;26021;45.640;11.302;2022-10-18T02:44:25;99878.19;;;13.14;100.00
40315;BME280;26021;45.640;11.302;2022-10-18T02:46:51;99883.22;;;13.09;100.00
40315;BME280;26021;45.640;11.302;2022-10-18T02:49:16;99886.56;;;13.02;100.00
40315;BME280;26021;45.640;11.302;2022-10-18T02:51:42;99886.56;;;13.02;100.00
40315;BME280;26021;45.640;11.302;2022-10-18T02:54:07;99876.66;;;12.95;100.00
40315;BME280;26021;45.640;11.302;2022-10-18T02:56:34;99882.72;;;13.05;100.00
40315;BME280;26021;45.640;11.302;2022-10-18T02:58:59;99884.06;;;13.09;100.00
40315;BME280;26021;45.640;11.302;2022-10-18T03:01:25;99885.56;;;12.95;100.00
40315;BME280;26021;45.640;11.302;2022-10-18T03:03:51;99885.75;;;13.18;100.00
40315;BME280;26021;45.640;11.302;2022-10-18T03:06:16;99846.78;;;12.90;100.00
40315;BME280;26021;45.640;11.302;2022-10-18T03:08:42;99844.59;;;12.77;100.00
40315;BME280;26021;45.640;11.302;2022-10-18T03:11:07;99894.28;;;12.89;100.00
40315;BME280;26021;45.640;11.302;2022-10-18T03:13:33;99882.22;;;13.01;100.00
40315;BME280;26021;45.640;11.302;2022-10-18T03:15:59;99898.00;;;13.04;100.00
40315;BME280;26021;45.640;11.302;2022-10-18T03:18:24;99893.78;;;13.10;100.00
40315;BME280;26021;45.640;11.302;2022-10-18T03:20:50;99889.59;;;13.16;100.00
40315;BME280;26021;45.640;11.302;2022-10-18T03:23:15;99890.44;;;13.16;100.00
40315;BME280;26021;45.640;11.302;2022-10-18T03:25:41;99872.81;;;12.89;100.00
40315;BME280;26021;45.640;11.302;2022-10-18T03:28:06;99886.41;;;13.04;100.00
40315;BME280;26021;45.640;11.302;2022-10-18T03:30:32;99865.41;;;12.83;100.00
40315;BME280;26021;45.640;11.302;2022-10-18T03:32:58;99882.38;;;12.92;100.00
40315;BME280;26021;45.640;11.302;2022-10-18T03:35:23;99851.31;;;12.73;100.00
40315;BME280;26021;45.640;11.302;2022-10-18T03:37:49;99890.44;;;12.92;100.00
40315;BME280;26021;45.640;11.302;2022-10-18T03:40:15;99854.84;;;12.65;100.00
40315;BME280;26021;45.640;11.302;2022-10-18T03:42:40;99888.59;;;13.00;100.00
40315;BME280;26021;45.640;11.302;2022-10-18T03:45:06;99888.41;;;13.02;100.00
40315;BME280;26021;45.640;11.302;2022-10-18T03:47:32;99890.44;;;12.92;100.00
40315;BME280;26021;45.640;11.302;2022-10-18T03:49:57;99889.25;;;13.02;100.00
40315;BME280;26021;45.640;11.302;2022-10-18T03:52:23;99893.13;;;13.00;100.00
40315;BME280;26021;45.640;11.302;2022-10-18T03:54:48;99877.34;;;12.89;100.00
40315;BME280;26021;45.640;11.302;2022-10-18T03:57:14;99884.06;;;12.93;100.00
40315;BME280;26021;45.640;11.302;2022-10-18T03:59:39;99880.38;;;13.10;100.00
40315;BME280;26021;45.640;11.302;2022-10-18T04:02:04;99874.81;;;12.87;100.00
40315;BME280;26021;45.640;11.302;2022-10-18T04:04:30;99887.75;;;12.84;100.00
40315;BME280;26021;45.640;11.302;2022-10-18T04:06:55;99880.50;;;12.76;100.00
40315;BME280;26021;45.640;11.302;2022-10-18T04:09:21;99865.91;;;12.70;100.00
40315;BME280;26021;45.640;11.302;2022-10-18T04:11:49;99874.13;;;12.77;100.00
40315;BME280;26021;45.640;11.302;2022-10-18T04:14:14;99883.22;;;13.00;100.00
40315;BME280;26021;45.640;11.302;2022-10-18T04:16:39;99879.00;;;12.90;100.00
40315;BME280;26021;45.640;11.302;2022-10-18T04:19:05;99872.47;;;12.84;100.00
40315;BME280;26021;45.640;11.302;2022-10-18T04:21:30;99877.16;;;12.90;100.00
40315;BME280;26021;45.640;11.302;2022-10-18T04:23:56;99872.31;;;12.94;100.00
40315;BME280;26021;45.640;11.302;2022-10-18T04:26:21;99866.41;;;12.74;100.00
40315;BME280;26021;45.640;11.302;2022-10-18T04:28:47;99834.66;;;12.45;100.00
40315;BME280;26021;45.640;11.302;2022-10-18T04:31:12;99863.56;;;12.84;100.00
40315;BME280;26021;45.640;11.302;2022-10-18T04:33:37;99867.25;;;12.83;100.00
40315;BME280;26021;45.640;11.302;2022-10-18T04:36:04;99859.88;;;12.85;100.00
40315;BME280;26021;45.640;11.302;2022-10-18T04:38:29;99864.56;;;12.75;100.00
40315;BME280;26021;45.640;11.302;2022-10-18T04:40:55;99833.03;;;12.68;100.00
40315;BME280;26021;45.640;11.302;2022-10-18T04:43:20;99855.00;;;12.64;100.00
40315;BME280;26021;45.640;11.302;2022-10-18T04:45:46;99856.47;;;12.58;100.00
40315;BME280;26021;45.640;11.302;2022-10-18T04:48:13;99857.50;;;12.65;100.00
40315;BME280;26021;45.640;11.302;2022-10-18T04:50:39;99861.72;;;12.76;100.00
40315;BME280;26021;45.640;11.302;2022-10-18T04:53:04;99861.38;;;12.79;100.00
40315;BME280;26021;45.640;11.302;2022-10-18T04:55:30;99828.78;;;12.50;100.00
40315;BME280;26021;45.640;11.302;2022-10-18T04:57:55;99858.19;;;12.67;100.00
40315;BME280;26021;45.640;11.302;2022-10-18T05:00:21;99839.75;;;12.72;100.00
40315;BME280;26021;45.640;11.302;2022-10-18T05:02:46;99845.72;;;12.50;100.00
40315;BME280;26021;45.640;11.302;2022-10-18T05:05:12;99852.31;;;12.64;100.00
40315;BME280;26021;45.640;11.302;2022-10-18T05:07:37;99857.19;;;12.68;100.00
40315;BME280;26021;45.640;11.302;2022-10-18T05:10:03;99859.53;;;12.71;100.00
40315;BME280;26021;45.640;11.302;2022-10-18T05:12:29;99855.50;;;12.76;100.00
40315;BME280;26021;45.640;11.302;2022-10-18T05:14:54;99852.66;;;12.69;100.00
40315;BME280;26021;45.640;11.302;2022-10-18T05:17:19;99812.50;;;12.43;100.00
40315;BME280;26021;45.640;11.302;2022-10-18T05:19:45;99854.84;;;12.65;100.00
40315;BME280;26021;45.640;11.302;2022-10-18T05:22:10;99847.91;;;12.63;100.00
40315;BME280;26021;45.640;11.302;2022-10-18T05:24:36;99858.72;;;12.95;100.00
40315;BME280;26021;45.640;11.302;2022-10-18T05:27:01;99866.09;;;12.93;100.00
40315;BME280;26021;45.640;11.302;2022-10-18T05:29:27;99855.69;;;12.90;100.00
40315;BME280;26021;45.640;11.302;2022-10-18T05:31:53;99856.53;;;12.75;100.00
40315;BME280;26021;45.640;11.302;2022-10-18T05:34:18;99846.78;;;12.73;100.00
40315;BME280;26021;45.640;11.302;2022-10-18T05:36:45;99847.13;;;12.79;100.00
40315;BME280;26021;45.640;11.302;2022-10-18T05:39:11;99832.34;;;12.66;100.00
40315;BME280;26021;45.640;11.302;2022-10-18T05:41:36;99853.00;;;12.90;100.00
40315;BME280;26021;45.640;11.302;2022-10-18T05:44:03;99854.00;;;12.89;100.00
40315;BME280;26021;45.640;11.302;2022-10-18T05:46:29;99851.47;;;12.71;100.00
40315;BME280;26021;45.640;11.302;2022-10-18T05:48:54;99857.69;;;12.80;100.00
40315;BME280;26021;45.640;11.302;2022-10-18T05:51:19;99855.69;;;12.90;100.00
40315;BME280;26021;45.640;11.302;2022-10-18T05:53:45;99850.47;;;13.05;100.00
40315;BME280;26021;45.640;11.302;2022-10-18T05:56:10;99860.72;;;13.01;100.00
40315;BME280;26021;45.640;11.302;2022-10-18T05:58:37;99853.16;;;13.13;100.00
40315;BME280;26021;45.640;11.302;2022-10-18T06:01:04;99856.69;;;12.89;100.00
40315;BME280;26021;45.640;11.302;2022-10-18T06:03:30;99848.31;;;13.00;100.00
40315;BME280;26021;45.640;11.302;2022-10-18T06:06:03;99860.41;;;13.21;100.00
40315;BME280;26021;45.640;11.302;2022-10-18T06:08:29;99860.88;;;13.08;100.00
40315;BME280;26021;45.640;11.302;2022-10-18T06:10:55;99859.22;;;13.07;100.00
40315;BME280;26021;45.640;11.302;2022-10-18T06:13:21;99852.16;;;13.06;100.00
40315;BME280;26021;45.640;11.302;2022-10-18T06:15:46;99851.00;;;13.17;100.00
40315;BME280;26021;45.640;11.302;2022-10-18T06:18:12;99848.63;;;13.05;100.00
40315;BME280;26021;45.640;11.302;2022-10-18T06:20:37;99864.25;;;13.10;100.00
40315;BME280;26021;45.640;11.302;2022-10-18T06:23:02;99855.38;;;13.42;100.00
40315;BME280;26021;45.640;11.302;2022-10-18T06:25:28;99857.72;;;13.45;100.00
40315;BME280;26021;45.640;11.302;2022-10-18T06:27:53;99857.84;;;13.60;100.00
40315;BME280;26021;45.640;11.302;2022-10-18T06:30:19;99860.88;;;13.57;100.00
40315;BME280;26021;45.640;11.302;2022-10-18T06:32:44;99859.56;;;13.45;100.00
40315;BME280;26021;45.640;11.302;2022-10-18T06:35:10;99860.88;;;13.57;100.00
40315;BME280;26021;45.640;11.302;2022-10-18T06:37:35;99869.41;;;13.77;100.00
40315;BME280;26021;45.640;11.302;2022-10-18T06:40:03;99870.44;;;13.67;100.00
40315;BME280;26021;45.640;11.302;2022-10-18T06:42:29;99867.56;;;13.77;100.00
40315;BME280;26021;45.640;11.302;2022-10-18T06:44:56;99880.06;;;14.01;100.00
40315;BME280;26021;45.640;11.302;2022-10-18T06:47:21;99868.06;;;14.28;100.00
40315;BME280;26021;45.640;11.302;2022-10-18T06:49:46;99862.63;;;14.36;100.00
40315;BME280;26021;45.640;11.302;2022-10-18T06:52:12;99856.09;;;14.30;100.00
40315;BME280;26021;45.640;11.302;2022-10-18T06:54:37;99874.28;;;14.59;100.00
40315;BME280;26021;45.640;11.302;2022-10-18T06:57:03;99870.78;;;14.82;100.00
40315;BME280;26021;45.640;11.302;2022-10-18T06:59:28;99874.22;;;14.99;100.00
40315;BME280;26021;45.640;11.302;2022-10-18T07:01:54;99872.06;;;15.32;100.00
40315;BME280;26021;45.640;11.302;2022-10-18T07:04:19;99873.94;;;15.31;100.00
40315;BME280;26021;45.640;11.302;2022-10-18T07:06:44;99883.50;;;15.34;100.00
40315;BME280;26021;45.640;11.302;2022-10-18T07:09:10;99880.09;;;15.40;100.00
40315;BME280;26021;45.640;11.302;2022-10-18T07:11:36;99863.91;;;15.77;100.00
40315;BME280;26021;45.640;11.302;2022-10-18T07:14:02;99871.09;;;15.85;100.00
40315;BME280;26021;45.640;11.302;2022-10-18T07:16:29;99873.41;;;16.03;100.00
40315;BME280;26021;45.640;11.302;2022-10-18T07:18:56;99877.88;;;16.10;100.00
40315;BME280;26021;45.640;11.302;2022-10-18T07:21:23;99872.44;;;16.40;100.00
40315;BME280;26021;45.640;11.302;2022-10-18T07:23:50;99872.06;;;16.28;100.00
40315;BME280;26021;45.640;11.302;2022-10-18T07:26:24;99845.34;;;16.48;100.00
40315;BME280;26021;45.640;11.302;2022-10-18T07:28:51;99868.56;;;16.64;100.00
40315;BME280;26021;45.640;11.302;2022-10-18T07:31:19;99862.75;;;16.81;100.00
40315;BME280;26021;45.640;11.302;2022-10-18T07:33:44;99872.34;;;16.84;100.00
40315;BME280;26021;45.640;11.302;2022-10-18T07:36:10;99865.44;;;17.03;100.00
40315;BME280;26021;45.640;11.302;2022-10-18T07:38:36;99868.41;;;17.08;100.00
40315;BME280;26021;45.640;11.302;2022-10-18T07:41:03;99853.22;;;17.07;100.00
40315;BME280;26021;45.640;11.302;2022-10-18T07:43:30;99864.38;;;17.46;100.00
40315;BME280;26021;45.640;11.302;2022-10-18T07:45:58;99869.91;;;17.32;100.00
40315;BME280;26021;45.640;11.302;2022-10-18T07:48:24;99865.19;;;17.40;100.00
40315;BME280;26021;45.640;11.302;2022-10-18T07:50:50;99864.59;;;17.45;100.00
40315;BME280;26021;45.640;11.302;2022-10-18T07:53:15;99858.75;;;17.69;100.00
40315;BME280;26021;45.640;11.302;2022-10-18T07:55:41;99857.16;;;17.82;100.00
40315;BME280;26021;45.640;11.302;2022-10-18T07:58:07;99848.41;;;18.14;100.00
40315;BME280;26021;45.640;11.302;2022-10-18T08:00:33;99843.75;;;17.95;100.00
40315;BME280;26021;45.640;11.302;2022-10-18T08:02:58;99859.56;;;17.98;100.00
40315;BME280;26021;45.640;11.302;2022-10-18T08:05:25;99851.75;;;18.16;100.00
40315;BME280;26021;45.640;11.302;2022-10-18T08:07:51;99859.03;;;18.16;100.00
40315;BME280;26021;45.640;11.302;2022-10-18T08:10:17;99842.59;;;18.17;100.00
40315;BME280;26021;45.640;11.302;2022-10-18T08:12:42;99854.13;;;18.39;100.00
40315;BME280;26021;45.640;11.302;2022-10-18T08:15:08;99851.25;;;18.54;100.00
40315;BME280;26021;45.640;11.302;2022-10-18T08:17:33;99848.91;;;18.92;100.00
40315;BME280;26021;45.640;11.302;2022-10-18T08:19:59;99843.69;;;18.90;100.00
40315;BME280;26021;45.640;11.302;2022-10-18T08:22:24;99849.13;;;18.97;100.00
40315;BME280;26021;45.640;11.302;2022-10-18T08:24:50;99832.00;;;18.77;100.00
40315;BME280;26021;45.640;11.302;2022-10-18T08:27:15;99839.50;;;18.88;100.00
40315;BME280;26021;45.640;11.302;2022-10-18T08:29:41;99850.78;;;18.98;100.00
40315;BME280;26021;45.640;11.302;2022-10-18T08:32:06;99843.03;;;18.82;100.00
40315;BME280;26021;45.640;11.302;2022-10-18T08:34:33;99842.22;;;18.94;100.00
40315;BME280;26021;45.640;11.302;2022-10-18T08:36:58;99844.09;;;19.00;100.00
40315;BME280;26021;45.640;11.302;2022-10-18T08:39:24;99843.91;;;19.09;100.00
40315;BME280;26021;45.640;11.302;2022-10-18T08:42:15;99844.75;;;19.02;100.00
40315;BME280;26021;45.640;11.302;2022-10-18T08:44:48;99837.03;;;19.19;100.00
40315;BME280;26021;45.640;11.302;2022-10-18T08:47:17;99836.19;;;19.12;100.00
40315;BME280;26021;45.640;11.302;2022-10-18T08:49:47;99842.25;;;19.27;100.00
40315;BME280;26021;45.640;11.302;2022-10-18T08:52:36;99835.38;;;19.38;100.00
40315;BME280;26021;45.640;11.302;2022-10-18T08:55:35;99845.59;;;19.36;100.00
40315;BME280;26021;45.640;11.302;2022-10-18T08:58:23;99839.94;;;19.31;100.00
40315;BME280;26021;45.640;11.302;2022-10-18T09:00:57;99836.22;;;19.39;100.00
40315;BME280;26021;45.640;11.302;2022-10-18T09:03:57;99826.63;;;19.56;100.00
40315;BME280;26021;45.640;11.302;2022-10-18T09:06:39;99821.59;;;19.59;100.00
40315;BME280;26021;45.640;11.302;2022-10-18T09:11:46;99823.25;;;19.67;100.00
40315;BME280;26021;45.640;11.302;2022-10-18T09:22:45;99817.78;;;19.87;100.00
40315;BME280;26021;45.640;11.302;2022-10-18T09:25:34;99812.97;;;19.89;100.00
40315;BME280;26021;45.640;11.302;2022-10-18T09:35:58;99804.44;;;19.79;100.00
40315;BME280;26021;45.640;11.302;2022-10-18T09:38:28;99804.34;;;20.05;100.00
40315;BME280;26021;45.640;11.302;2022-10-18T09:41:19;99807.25;;;20.17;100.00
40315;BME280;26021;45.640;11.302;2022-10-18T09:46:21;99805.41;;;20.11;100.00
40315;BME280;26021;45.640;11.302;2022-10-18T09:48:53;99778.06;;;19.99;100.00
40315;BME280;26021;45.640;11.302;2022-10-18T09:51:25;99796.59;;;20.15;100.00
40315;BME280;26021;45.640;11.302;2022-10-18T09:56:25;99796.56;;;20.22;100.00
40315;BME280;26021;45.640;11.302;2022-10-18T09:58:53;99756.75;;;19.96;100.00
40315;BME280;26021;45.640;11.302;2022-10-18T10:01:28;99789.91;;;20.18;100.00
40315;BME280;26021;45.640;11.302;2022-10-18T10:03:54;99795.28;;;20.31;100.00
40315;BME280;26021;45.640;11.302;2022-10-18T10:06:31;99795.50;;;20.29;100.00
40315;BME280;26021;45.640;11.302;2022-10-18T10:09:06;99798.59;;;20.33;100.00
40315;BME280;26021;45.640;11.302;2022-10-18T10:11:37;99788.81;;;20.25;100.00
40315;BME280;26021;45.640;11.302;2022-10-18T10:14:08;99796.31;;;20.30;100.00
40315;BME280;26021;45.640;11.302;2022-10-18T10:16:42;99795.66;;;20.35;100.00
40315;BME280;26021;45.640;11.302;2022-10-18T10:19:15;99800.47;;;20.33;100.00
40315;BME280;26021;45.640;11.302;2022-10-18T10:21:41;99791.31;;;20.27;100.00
40315;BME280;26021;45.640;11.302;2022-10-18T10:24:18;99789.22;;;20.29;100.00
40315;BME280;26021;45.640;11.302;2022-10-18T10:26:46;99790.22;;;20.41;100.00
40315;BME280;26021;45.640;11.302;2022-10-18T10:29:45;99783.00;;;20.60;100.00
40315;BME280;26021;45.640;11.302;2022-10-18T10:32:17;99787.13;;;20.69;100.00
40315;BME280;26021;45.640;11.302;2022-10-18T10:34:43;99788.53;;;20.78;100.00
40315;BME280;26021;45.640;11.302;2022-10-18T10:37:38;99783.31;;;20.77;100.00
40315;BME280;26021;45.640;11.302;2022-10-18T10:40:17;99783.34;;;20.70;100.00
40315;BME280;26021;45.640;11.302;2022-10-18T10:45:28;99751.28;;;20.54;100.00
40315;BME280;26021;45.640;11.302;2022-10-18T10:48:02;99773.97;;;20.66;100.00
40315;BME280;26021;45.640;11.302;2022-10-18T10:50:28;99774.69;;;20.86;100.00
40315;BME280;26021;45.640;11.302;2022-10-18T10:52:54;99740.91;;;20.69;100.00
40315;BME280;26021;45.640;11.302;2022-10-18T10:55:25;99764.03;;;20.85;100.00
40315;BME280;26021;45.640;11.302;2022-10-18T10:57:54;99764.53;;;21.00;100.00
40315;BME280;26021;45.640;11.302;2022-10-18T11:05:44;99745.50;;;21.25;100.00
40315;BME280;26021;45.640;11.302;2022-10-18T11:08:14;99730.09;;;21.12;100.00
40315;BME280;26021;45.640;11.302;2022-10-18T11:13:58;99730.00;;;21.25;100.00
40315;BME280;26021;45.640;11.302;2022-10-18T11:16:35;99721.50;;;21.15;100.00
40315;BME280;26021;45.640;11.302;2022-10-18T11:19:13;99723.38;;;21.15;100.00
40315;BME280;26021;45.640;11.302;2022-10-18T11:21:44;99713.53;;;21.39;100.00
40315;BME280;26021;45.640;11.302;2022-10-18T11:24:14;99680.81;;;21.27;100.00
40315;BME280;26021;45.640;11.302;2022-10-18T11:32:33;99697.22;;;21.75;98.45
40315;BME280;26021;45.640;11.302;2022-10-18T11:38:01;99692.69;;;21.69;100.00
40315;BME280;26021;45.640;11.302;2022-10-18T11:40:36;99684.91;;;21.73;98.65
40315;BME280;26021;45.640;11.302;2022-10-18T11:54:21;99657.06;;;22.01;96.85
40315;BME280;26021;45.640;11.302;2022-10-18T11:59:27;99645.94;;;22.02;97.38
40315;BME280;26021;45.640;11.302;2022-10-18T12:05:01;99636.53;;;22.16;95.68
40315;BME280;26021;45.640;11.302;2022-10-18T12:07:37;99633.41;;;22.01;97.58
40315;BME280;26021;45.640;11.302;2022-10-18T12:10:07;99625.50;;;22.11;97.42
40315;BME280;26021;45.640;11.302;2022-10-18T12:12:44;99631.03;;;22.35;95.70
40315;BME280;26021;45.640;11.302;2022-10-18T12:15:20;99599.59;;;22.20;95.13
40315;BME280;26021;45.640;11.302;2022-10-18T12:17:49;99626.97;;;22.26;96.37
40315;BME280;26021;45.640;11.302;2022-10-18T12:20:45;99611.31;;;22.21;97.10
40315;BME280;26021;45.640;11.302;2022-10-18T12:23:20;99616.13;;;22.49;96.28
40315;BME280;26021;45.640;11.302;2022-10-18T12:25:52;99581.25;;;22.28;95.96
40315;BME280;26021;45.640;11.302;2022-10-18T12:31:45;99605.72;;;22.69;94.17
40315;BME280;26021;45.640;11.302;2022-10-18T12:36:50;99596.81;;;22.50;93.24
40315;BME280;26021;45.640;11.302;2022-10-18T12:39:32;99594.69;;;22.64;92.89
40315;BME280;26021;45.640;11.302;2022-10-18T12:41:58;99574.19;;;22.50;93.06
40315;BME280;26021;45.640;11.302;2022-10-18T12:44:30;99598.94;;;22.72;92.50
40315;BME280;26021;45.640;11.302;2022-10-18T12:47:01;99593.38;;;22.55;93.75
40315;BME280;26021;45.640;11.302;2022-10-18T12:49:31;99590.06;;;22.53;93.41
40315;BME280;26021;45.640;11.302;2022-10-18T12:51:59;99578.44;;;22.34;96.45
40315;BME280;26021;45.640;11.302;2022-10-18T12:54:30;99583.41;;;22.49;94.63
40315;BME280;26021;45.640;11.302;2022-10-18T12:56:58;99549.25;;;22.23;95.66
40315;BME280;26021;45.640;11.302;2022-10-18T13:09:23;99559.84;;;22.43;95.93
40315;BME280;26021;45.640;11.302;2022-10-18T13:11:51;99565.41;;;22.60;93.65
40315;BME280;26021;45.640;11.302;2022-10-18T13:20:14;99560.19;;;22.58;93.79
40315;BME280;26021;45.640;11.302;2022-10-18T13:28:41;99560.66;;;22.67;92.94
40315;BME280;26021;45.640;11.302;2022-10-18T13:33:51;99558.88;;;22.61;91.90
40315;BME280;26021;45.640;11.302;2022-10-18T13:41:22;99547.88;;;22.56;92.98
40315;BME280;26021;45.640;11.302;2022-10-18T13:46:24;99551.41;;;22.56;92.15
40315;BME280;26021;45.640;11.302;2022-10-18T13:48:54;99528.16;;;22.07;94.10
40315;BME280;26021;45.640;11.302;2022-10-18T13:51:29;99561.84;;;22.47;93.84
40315;BME280;26021;45.640;11.302;2022-10-18T13:54:08;99556.03;;;22.32;94.46
40315;BME280;26021;45.640;11.302;2022-10-18T13:56:48;99538.00;;;22.19;95.37
40315;BME280;26021;45.640;11.302;2022-10-18T14:02:33;99549.16;;;22.30;94.47
40315;BME280;26021;45.640;11.302;2022-10-18T14:07:47;99541.44;;;22.27;96.46
40315;BME280;26021;45.640;11.302;2022-10-18T14:10:21;99553.38;;;22.14;98.58
40315;BME280;26021;45.640;11.302;2022-10-18T14:12:52;99556.53;;;21.99;100.00
40315;BME280;26021;45.640;11.302;2022-10-18T14:15:25;99556.28;;;22.01;100.00
40315;BME280;26021;45.640;11.302;2022-10-18T14:20:27;99548.41;;;22.11;99.77
40315;BME280;26021;45.640;11.302;2022-10-18T14:23:38;99552.19;;;22.10;99.02
40315;BME280;26021;45.640;11.302;2022-10-18T14:25:42;99551.13;;;21.69;100.00
40315;BME280;26021;45.640;11.302;2022-10-18T14:30:56;99492.69;;;21.53;100.00
40315;BME280;26021;45.640;11.302;2022-10-18T14:33:45;99547.50;;;21.87;100.00
40315;BME280;26021;45.640;11.302;2022-10-18T14:36:22;99542.25;;;21.74;100.00
40315;BME280;26021;45.640;11.302;2022-10-18T14:38:51;99539.41;;;21.69;100.00
40315;BME280;26021;45.640;11.302;2022-10-18T14:41:31;99541.75;;;21.65;100.00
40315;BME280;26021;45.640;11.302;2022-10-18T14:44:16;99539.88;;;21.66;100.00
40315;BME280;26021;45.640;11.302;2022-10-18T14:49:44;99529.47;;;21.44;100.00
40315;BME280;26021;45.640;11.302;2022-10-18T14:52:23;99530.50;;;21.32;100.00
40315;BME280;26021;45.640;11.302;2022-10-18T14:54:53;99505.31;;;21.18;100.00
40315;BME280;26021;45.640;11.302;2022-10-18T14:57:25;99527.41;;;21.28;100.00
40315;BME280;26021;45.640;11.302;2022-10-18T14:59:54;99526.00;;;21.37;100.00
40315;BME280;26021;45.640;11.302;2022-10-18T15:02:29;99518.47;;;21.21;100.00
40315;BME280;26021;45.640;11.302;2022-10-18T15:07:31;99523.47;;;21.06;100.00
40315;BME280;26021;45.640;11.302;2022-10-18T15:09:58;99518.72;;;21.01;100.00
40315;BME280;26021;45.640;11.302;2022-10-18T15:12:25;99521.28;;;20.96;100.00